DAL2070 KDCA-KDTW
Flight info
| Callsign | DAL2070 |
|---|---|
| Flight time | 1h 11m |
| Altitude | 38000 |
| Route | HORTO4 BUFFR Q178 KOZAR BONZZ2 |
| Aircraft | B738/M-SDE2E3FGHIRWXY/LB1 |
Departure
| Time | 2026-04-20 21:46 |
|---|---|
| Airport | Ronald Reagan Washington National Airport (KDCA) |
Arrival
| Time | 2026-04-20 22:57 |
|---|---|
| Airport | Detroit Metropolitan Wayne County Airport (KDTW) |
| Time | Latitude | Longitude | Altitude | Speed | Heading |
|---|---|---|---|---|---|
| 2026-04-20 21:18 | 38.85260 | -77.04121 | 24 ft | 0 kts | 200° |
| 2026-04-20 21:36 | 38.85263 | -77.04119 | 24 ft | 2 kts | 201° |
| 2026-04-20 21:36 | 38.85272 | -77.04115 | 24 ft | 1 kts | 201° |
| 2026-04-20 21:36 | 38.85287 | -77.04112 | 24 ft | 2 kts | 163° |
| 2026-04-20 21:36 | 38.85299 | -77.04122 | 24 ft | 2 kts | 129° |
| 2026-04-20 21:37 | 38.85305 | -77.04140 | 24 ft | 2 kts | 93° |
| 2026-04-20 21:37 | 38.85305 | -77.04151 | 24 ft | 1 kts | 73° |
| 2026-04-20 21:37 | 38.85302 | -77.04160 | 24 ft | 0 kts | 71° |
| 2026-04-20 21:39 | 38.85305 | -77.04148 | 24 ft | 3 kts | 72° |
| 2026-04-20 21:39 | 38.85316 | -77.04105 | 24 ft | 5 kts | 72° |
| 2026-04-20 21:39 | 38.85322 | -77.04080 | 24 ft | 0 kts | 72° |
| 2026-04-20 21:40 | 38.85323 | -77.04076 | 24 ft | 0 kts | 72° |
| 2026-04-20 21:40 | 38.85325 | -77.04068 | 24 ft | 2 kts | 72° |
| 2026-04-20 21:40 | 38.85328 | -77.04039 | 24 ft | 4 kts | 95° |
| 2026-04-20 21:41 | 38.85311 | -77.04000 | 24 ft | 5 kts | 144° |
| 2026-04-20 21:41 | 38.85263 | -77.03987 | 24 ft | 8 kts | 175° |
| 2026-04-20 21:41 | 38.85199 | -77.03981 | 24 ft | 9 kts | 175° |
| 2026-04-20 21:41 | 38.85127 | -77.03973 | 24 ft | 10 kts | 175° |
| 2026-04-20 21:42 | 38.85048 | -77.03966 | 24 ft | 11 kts | 176° |
| 2026-04-20 21:42 | 38.84965 | -77.03957 | 24 ft | 12 kts | 175° |
| 2026-04-20 21:42 | 38.84889 | -77.03949 | 24 ft | 7 kts | 172° |
| 2026-04-20 21:42 | 38.84875 | -77.03909 | 24 ft | 4 kts | 92° |
| 2026-04-20 21:43 | 38.84853 | -77.03887 | 24 ft | 5 kts | 172° |
| 2026-04-20 21:43 | 38.84811 | -77.03881 | 24 ft | 7 kts | 176° |
| 2026-04-20 21:43 | 38.84750 | -77.03876 | 24 ft | 10 kts | 176° |
| 2026-04-20 21:43 | 38.84668 | -77.03867 | 24 ft | 13 kts | 175° |
| 2026-04-20 21:44 | 38.84567 | -77.03857 | 24 ft | 15 kts | 176° |
| 2026-04-20 21:44 | 38.84452 | -77.03846 | 24 ft | 17 kts | 175° |
| 2026-04-20 21:44 | 38.84337 | -77.03835 | 24 ft | 16 kts | 175° |
| 2026-04-20 21:44 | 38.84237 | -77.03809 | 24 ft | 12 kts | 135° |
| 2026-04-20 21:45 | 38.84190 | -77.03720 | 24 ft | 9 kts | 109° |
| 2026-04-20 21:45 | 38.84222 | -77.03682 | 24 ft | 8 kts | 358° |
| 2026-04-20 21:45 | 38.84434 | -77.03702 | 24 ft | 63 kts | 355° |
| 2026-04-20 21:45 | 38.85092 | -77.03770 | 25 ft | 124 kts | 355° |
| 2026-04-20 21:46 | 38.86084 | -77.03875 | 265 ft | 152 kts | 353° |
| 2026-04-20 21:46 | 38.87107 | -77.04144 | 872 ft | 157 kts | 334° |
| 2026-04-20 21:46 | 38.88085 | -77.04894 | 1323 ft | 174 kts | 320° |
| 2026-04-20 21:46 | 38.88959 | -77.05949 | 2111 ft | 172 kts | 318° |
| 2026-04-20 21:47 | 38.89793 | -77.06976 | 2861 ft | 171 kts | 311° |
| 2026-04-20 21:47 | 38.90552 | -77.08283 | 3246 ft | 194 kts | 302° |
| 2026-04-20 21:47 | 38.91323 | -77.09828 | 3698 ft | 215 kts | 307° |
| 2026-04-20 21:47 | 38.92353 | -77.11276 | 4254 ft | 233 kts | 318° |
| 2026-04-20 21:48 | 38.93581 | -77.12382 | 4865 ft | 244 kts | 326° |
| 2026-04-20 21:48 | 38.95020 | -77.13555 | 5678 ft | 248 kts | 321° |
| 2026-04-20 21:48 | 38.96236 | -77.15095 | 6499 ft | 250 kts | 306° |
| 2026-04-20 21:48 | 38.97071 | -77.17049 | 7310 ft | 253 kts | 290° |
| 2026-04-20 21:49 | 38.97479 | -77.19247 | 8096 ft | 257 kts | 281° |
| 2026-04-20 21:49 | 38.97788 | -77.21496 | 8884 ft | 260 kts | 281° |
| 2026-04-20 21:49 | 38.98119 | -77.23776 | 9692 ft | 261 kts | 282° |
| 2026-04-20 21:49 | 38.98468 | -77.26074 | 10483 ft | 263 kts | 282° |
| 2026-04-20 21:50 | 38.98878 | -77.28464 | 10609 ft | 288 kts | 287° |
| 2026-04-20 21:50 | 38.99617 | -77.30966 | 10768 ft | 311 kts | 296° |
| 2026-04-20 21:50 | 39.00823 | -77.33343 | 11182 ft | 325 kts | 308° |
| 2026-04-20 21:50 | 39.02385 | -77.35467 | 11860 ft | 330 kts | 314° |
| 2026-04-20 21:51 | 39.04076 | -77.37460 | 12634 ft | 332 kts | 316° |
| 2026-04-20 21:51 | 39.05785 | -77.39414 | 13371 ft | 333 kts | 315° |
| 2026-04-20 21:51 | 39.07532 | -77.41421 | 14055 ft | 337 kts | 315° |
| 2026-04-20 21:51 | 39.09257 | -77.43407 | 14802 ft | 339 kts | 316° |
| 2026-04-20 21:52 | 39.11158 | -77.45249 | 15551 ft | 343 kts | 323° |
| 2026-04-20 21:52 | 39.13280 | -77.46708 | 16227 ft | 351 kts | 331° |
| 2026-04-20 21:52 | 39.15564 | -77.47829 | 16884 ft | 357 kts | 335° |
| 2026-04-20 21:52 | 39.17936 | -77.48804 | 17547 ft | 360 kts | 336° |
| 2026-04-20 21:53 | 39.20328 | -77.49741 | 18139 ft | 364 kts | 337° |
| 2026-04-20 21:53 | 39.22740 | -77.50682 | 18697 ft | 368 kts | 337° |
| 2026-04-20 21:53 | 39.25214 | -77.51650 | 19258 ft | 371 kts | 337° |
| 2026-04-20 21:53 | 39.27685 | -77.52620 | 19802 ft | 375 kts | 337° |
| 2026-04-20 21:54 | 39.30157 | -77.53591 | 20333 ft | 378 kts | 337° |
| 2026-04-20 21:54 | 39.32709 | -77.54597 | 20843 ft | 382 kts | 337° |
| 2026-04-20 21:54 | 39.35232 | -77.55591 | 21346 ft | 385 kts | 337° |
| 2026-04-20 21:54 | 39.37803 | -77.56605 | 21868 ft | 388 kts | 337° |
| 2026-04-20 21:55 | 39.40379 | -77.57681 | 22312 ft | 389 kts | 333° |
| 2026-04-20 21:55 | 39.42766 | -77.59247 | 22788 ft | 385 kts | 323° |
| 2026-04-20 21:55 | 39.44858 | -77.61334 | 23271 ft | 382 kts | 314° |
| 2026-04-20 21:55 | 39.46649 | -77.63911 | 23682 ft | 383 kts | 304° |
| 2026-04-20 21:56 | 39.47996 | -77.66758 | 24149 ft | 383 kts | 295° |
| 2026-04-20 21:56 | 39.49031 | -77.69910 | 24585 ft | 385 kts | 291° |
| 2026-04-20 21:56 | 39.50001 | -77.73142 | 24994 ft | 388 kts | 290° |
| 2026-04-20 21:56 | 39.50977 | -77.76421 | 25415 ft | 391 kts | 290° |
| 2026-04-20 21:57 | 39.51959 | -77.79719 | 25827 ft | 394 kts | 290° |
| 2026-04-20 21:57 | 39.52942 | -77.83011 | 26222 ft | 397 kts | 290° |
| 2026-04-20 21:57 | 39.53947 | -77.86373 | 26621 ft | 399 kts | 290° |
| 2026-04-20 21:57 | 39.54951 | -77.89695 | 26996 ft | 402 kts | 291° |
| 2026-04-20 21:58 | 39.55993 | -77.93095 | 27379 ft | 404 kts | 291° |
| 2026-04-20 21:58 | 39.57033 | -77.96482 | 27728 ft | 407 kts | 291° |
| 2026-04-20 21:58 | 39.58078 | -77.99883 | 28084 ft | 409 kts | 291° |
| 2026-04-20 21:58 | 39.59129 | -78.03312 | 28440 ft | 411 kts | 291° |
| 2026-04-20 21:59 | 39.60189 | -78.06767 | 28788 ft | 413 kts | 291° |
| 2026-04-20 21:59 | 39.61245 | -78.10211 | 29181 ft | 414 kts | 291° |
| 2026-04-20 21:59 | 39.62313 | -78.13696 | 29615 ft | 413 kts | 291° |
| 2026-04-20 21:59 | 39.63374 | -78.17163 | 30045 ft | 413 kts | 291° |
| 2026-04-20 22:00 | 39.64426 | -78.20606 | 30483 ft | 411 kts | 291° |
| 2026-04-20 22:00 | 39.65472 | -78.24030 | 30932 ft | 410 kts | 291° |
| 2026-04-20 22:00 | 39.66513 | -78.27447 | 31332 ft | 409 kts | 291° |
| 2026-04-20 22:00 | 39.67558 | -78.30880 | 31738 ft | 408 kts | 291° |
| 2026-04-20 22:01 | 39.68603 | -78.34318 | 32126 ft | 407 kts | 291° |
| 2026-04-20 22:01 | 39.69633 | -78.37709 | 32528 ft | 406 kts | 291° |
| 2026-04-20 22:01 | 39.70669 | -78.41126 | 32903 ft | 405 kts | 291° |
| 2026-04-20 22:01 | 39.71691 | -78.44501 | 33261 ft | 404 kts | 291° |
| 2026-04-20 22:02 | 39.72720 | -78.47904 | 33613 ft | 403 kts | 291° |
| 2026-04-20 22:02 | 39.73735 | -78.51263 | 33949 ft | 403 kts | 291° |
| 2026-04-20 22:02 | 39.74763 | -78.54672 | 34283 ft | 402 kts | 291° |
| 2026-04-20 22:02 | 39.75774 | -78.58029 | 34603 ft | 402 kts | 291° |
| 2026-04-20 22:03 | 39.76785 | -78.61387 | 34943 ft | 400 kts | 291° |
| 2026-04-20 22:03 | 39.77802 | -78.64771 | 35267 ft | 399 kts | 291° |
| 2026-04-20 22:03 | 39.78775 | -78.68021 | 35565 ft | 399 kts | 291° |
| 2026-04-20 22:03 | 39.79783 | -78.71393 | 35873 ft | 398 kts | 291° |
| 2026-04-20 22:04 | 39.80778 | -78.74728 | 36166 ft | 398 kts | 291° |
| 2026-04-20 22:04 | 39.81776 | -78.78070 | 36436 ft | 398 kts | 291° |
| 2026-04-20 22:04 | 39.82776 | -78.81422 | 36716 ft | 397 kts | 291° |
| 2026-04-20 22:04 | 39.83773 | -78.84772 | 36982 ft | 397 kts | 291° |
| 2026-04-20 22:05 | 39.84760 | -78.88086 | 37230 ft | 397 kts | 291° |
| 2026-04-20 22:05 | 39.85756 | -78.91436 | 37500 ft | 396 kts | 291° |
| 2026-04-20 22:05 | 39.86745 | -78.94764 | 37732 ft | 396 kts | 291° |
| 2026-04-20 22:05 | 39.87737 | -78.98108 | 37963 ft | 395 kts | 291° |
| 2026-04-20 22:06 | 39.88723 | -79.01434 | 38192 ft | 395 kts | 291° |
| 2026-04-20 22:06 | 39.89705 | -79.04750 | 38337 ft | 398 kts | 291° |
| 2026-04-20 22:06 | 39.90712 | -79.08157 | 38339 ft | 403 kts | 291° |
| 2026-04-20 22:07 | 39.92732 | -79.14993 | 38342 ft | 408 kts | 291° |
| 2026-04-20 22:07 | 39.94765 | -79.21891 | 38346 ft | 406 kts | 291° |
| 2026-04-20 22:08 | 39.96787 | -79.28773 | 38347 ft | 405 kts | 291° |
| 2026-04-20 22:08 | 39.98801 | -79.35618 | 38347 ft | 405 kts | 293° |
| 2026-04-20 22:09 | 40.01288 | -79.42194 | 38347 ft | 406 kts | 299° |
| 2026-04-20 22:09 | 40.04208 | -79.48521 | 38347 ft | 407 kts | 302° |
| 2026-04-20 22:10 | 40.07272 | -79.54733 | 38347 ft | 407 kts | 303° |
| 2026-04-20 22:10 | 40.10366 | -79.60862 | 38347 ft | 407 kts | 303° |
| 2026-04-20 22:11 | 40.13477 | -79.66981 | 38348 ft | 407 kts | 303° |
| 2026-04-20 22:11 | 40.16613 | -79.73144 | 38347 ft | 406 kts | 303° |
| 2026-04-20 22:12 | 40.19570 | -79.78953 | 38345 ft | 405 kts | 303° |
| 2026-04-20 22:12 | 40.22469 | -79.84649 | 38344 ft | 405 kts | 303° |
| 2026-04-20 22:13 | 40.25583 | -79.90771 | 38342 ft | 406 kts | 303° |
| 2026-04-20 22:13 | 40.28688 | -79.96883 | 38340 ft | 406 kts | 303° |
| 2026-04-20 22:14 | 40.31357 | -80.02147 | 38339 ft | 406 kts | 303° |
| 2026-04-20 22:14 | 40.34479 | -80.08328 | 38338 ft | 406 kts | 303° |
| 2026-04-20 22:15 | 40.37561 | -80.14495 | 38338 ft | 406 kts | 303° |
| 2026-04-20 22:15 | 40.40654 | -80.20668 | 38338 ft | 406 kts | 303° |
| 2026-04-20 22:16 | 40.43744 | -80.26829 | 38338 ft | 406 kts | 303° |
| 2026-04-20 22:16 | 40.46834 | -80.32989 | 38338 ft | 406 kts | 303° |
| 2026-04-20 22:17 | 40.49921 | -80.39175 | 38338 ft | 405 kts | 303° |
| 2026-04-20 22:17 | 40.53001 | -80.45356 | 38338 ft | 405 kts | 303° |
| 2026-04-20 22:18 | 40.56103 | -80.51581 | 38338 ft | 405 kts | 303° |
| 2026-04-20 22:18 | 40.59145 | -80.57815 | 38337 ft | 405 kts | 301° |
| 2026-04-20 22:19 | 40.61805 | -80.64344 | 38338 ft | 406 kts | 298° |
| 2026-04-20 22:19 | 40.64378 | -80.70940 | 38338 ft | 406 kts | 298° |
| 2026-04-20 22:20 | 40.66941 | -80.77536 | 38341 ft | 406 kts | 298° |
| 2026-04-20 22:20 | 40.69517 | -80.84167 | 38343 ft | 405 kts | 298° |
| 2026-04-20 22:21 | 40.72073 | -80.90755 | 38348 ft | 404 kts | 298° |
| 2026-04-20 22:21 | 40.74617 | -80.97324 | 38358 ft | 405 kts | 298° |
| 2026-04-20 22:22 | 40.77166 | -81.03922 | 38369 ft | 405 kts | 298° |
| 2026-04-20 22:22 | 40.79701 | -81.10495 | 38379 ft | 404 kts | 298° |
| 2026-04-20 22:23 | 40.82240 | -81.17091 | 38384 ft | 404 kts | 298° |
| 2026-04-20 22:23 | 40.84771 | -81.23683 | 38384 ft | 404 kts | 298° |
| 2026-04-20 22:24 | 40.87299 | -81.30284 | 38384 ft | 404 kts | 298° |
| 2026-04-20 22:24 | 40.89838 | -81.36927 | 38384 ft | 404 kts | 298° |
| 2026-04-20 22:25 | 40.92356 | -81.43529 | 38383 ft | 403 kts | 298° |
| 2026-04-20 22:25 | 40.94871 | -81.50139 | 38384 ft | 403 kts | 298° |
| 2026-04-20 22:26 | 40.97376 | -81.56738 | 38384 ft | 403 kts | 298° |
| 2026-04-20 22:26 | 40.99894 | -81.63387 | 38383 ft | 404 kts | 298° |
| 2026-04-20 22:27 | 41.02392 | -81.70007 | 38150 ft | 402 kts | 298° |
| 2026-04-20 22:27 | 41.03632 | -81.73307 | 37438 ft | 402 kts | 298° |
| 2026-04-20 22:27 | 41.04872 | -81.76608 | 36727 ft | 401 kts | 298° |
| 2026-04-20 22:27 | 41.06097 | -81.79868 | 36050 ft | 399 kts | 299° |
| 2026-04-20 22:28 | 41.07323 | -81.83134 | 35329 ft | 398 kts | 299° |
| 2026-04-20 22:28 | 41.08540 | -81.86382 | 34573 ft | 398 kts | 300° |
| 2026-04-20 22:28 | 41.09770 | -81.89665 | 33791 ft | 397 kts | 300° |
| 2026-04-20 22:28 | 41.10982 | -81.92904 | 33001 ft | 397 kts | 301° |
| 2026-04-20 22:29 | 41.12199 | -81.96159 | 32184 ft | 398 kts | 302° |
| 2026-04-20 22:29 | 41.13417 | -81.99418 | 31406 ft | 396 kts | 302° |
| 2026-04-20 22:29 | 41.14633 | -82.02684 | 30869 ft | 390 kts | 303° |
| 2026-04-20 22:29 | 41.15800 | -82.05824 | 30308 ft | 384 kts | 304° |
| 2026-04-20 22:30 | 41.16978 | -82.08996 | 29703 ft | 379 kts | 304° |
| 2026-04-20 22:30 | 41.18134 | -82.12112 | 29104 ft | 374 kts | 304° |
| 2026-04-20 22:30 | 41.19267 | -82.15166 | 28513 ft | 369 kts | 304° |
| 2026-04-20 22:30 | 41.20396 | -82.18214 | 27924 ft | 365 kts | 304° |
| 2026-04-20 22:31 | 41.21568 | -82.21117 | 27528 ft | 345 kts | 310° |
| 2026-04-20 22:31 | 41.22944 | -82.23628 | 27383 ft | 335 kts | 316° |
| 2026-04-20 22:31 | 41.24511 | -82.25899 | 27137 ft | 334 kts | 320° |
| 2026-04-20 22:31 | 41.26207 | -82.28002 | 26885 ft | 333 kts | 323° |
| 2026-04-20 22:32 | 41.27785 | -82.29799 | 26656 ft | 332 kts | 324° |
| 2026-04-20 22:32 | 41.29368 | -82.31530 | 26431 ft | 330 kts | 324° |
| 2026-04-20 22:32 | 41.31148 | -82.33437 | 26178 ft | 328 kts | 325° |
| 2026-04-20 22:32 | 41.32928 | -82.35322 | 25927 ft | 326 kts | 325° |
| 2026-04-20 22:33 | 41.34430 | -82.36906 | 25714 ft | 326 kts | 325° |
| 2026-04-20 22:33 | 41.36205 | -82.38776 | 25463 ft | 325 kts | 325° |
| 2026-04-20 22:33 | 41.37970 | -82.40633 | 25213 ft | 324 kts | 325° |
| 2026-04-20 22:33 | 41.39743 | -82.42497 | 24961 ft | 324 kts | 325° |
| 2026-04-20 22:34 | 41.41507 | -82.44353 | 24711 ft | 323 kts | 325° |
| 2026-04-20 22:34 | 41.43269 | -82.46207 | 24460 ft | 322 kts | 325° |
| 2026-04-20 22:34 | 41.45020 | -82.48050 | 24209 ft | 321 kts | 324° |
| 2026-04-20 22:34 | 41.46746 | -82.49869 | 23961 ft | 320 kts | 324° |
| 2026-04-20 22:35 | 41.48500 | -82.51717 | 23708 ft | 318 kts | 324° |
| 2026-04-20 22:35 | 41.50214 | -82.53526 | 23460 ft | 317 kts | 324° |
| 2026-04-20 22:35 | 41.51937 | -82.55347 | 23210 ft | 316 kts | 324° |
| 2026-04-20 22:35 | 41.53659 | -82.57175 | 22958 ft | 314 kts | 324° |
| 2026-04-20 22:36 | 41.55364 | -82.58984 | 22707 ft | 313 kts | 324° |
| 2026-04-20 22:36 | 41.57067 | -82.60790 | 22456 ft | 312 kts | 324° |
| 2026-04-20 22:36 | 41.58741 | -82.62564 | 22208 ft | 311 kts | 324° |
| 2026-04-20 22:36 | 41.60450 | -82.64377 | 21956 ft | 310 kts | 324° |
| 2026-04-20 22:37 | 41.62127 | -82.66157 | 21706 ft | 309 kts | 323° |
| 2026-04-20 22:37 | 41.63803 | -82.67941 | 21457 ft | 309 kts | 323° |
| 2026-04-20 22:37 | 41.65478 | -82.69726 | 21206 ft | 308 kts | 323° |
| 2026-04-20 22:37 | 41.67146 | -82.71502 | 20956 ft | 306 kts | 323° |
| 2026-04-20 22:38 | 41.68820 | -82.73283 | 20703 ft | 304 kts | 323° |
| 2026-04-20 22:38 | 41.70403 | -82.74969 | 20462 ft | 303 kts | 323° |
| 2026-04-20 22:38 | 41.71746 | -82.76399 | 20258 ft | 302 kts | 323° |
| 2026-04-20 22:38 | 41.73388 | -82.78153 | 20007 ft | 302 kts | 322° |
| 2026-04-20 22:39 | 41.74981 | -82.80017 | 19749 ft | 303 kts | 319° |
| 2026-04-20 22:39 | 41.76459 | -82.82008 | 19364 ft | 305 kts | 316° |
| 2026-04-20 22:39 | 41.77672 | -82.83767 | 18946 ft | 302 kts | 315° |
| 2026-04-20 22:39 | 41.79070 | -82.85841 | 18458 ft | 299 kts | 315° |
| 2026-04-20 22:40 | 41.80457 | -82.87896 | 17851 ft | 293 kts | 315° |
| 2026-04-20 22:40 | 41.81823 | -82.89908 | 17188 ft | 295 kts | 315° |
| 2026-04-20 22:40 | 41.83202 | -82.91928 | 16656 ft | 296 kts | 315° |
| 2026-04-20 22:40 | 41.84587 | -82.93958 | 16153 ft | 294 kts | 315° |
| 2026-04-20 22:41 | 41.85966 | -82.95979 | 15673 ft | 292 kts | 315° |
| 2026-04-20 22:41 | 41.87336 | -82.97987 | 15207 ft | 292 kts | 315° |
| 2026-04-20 22:41 | 41.88682 | -82.99965 | 14991 ft | 286 kts | 314° |
| 2026-04-20 22:41 | 41.90013 | -83.01939 | 14971 ft | 291 kts | 314° |
| 2026-04-20 22:42 | 41.91399 | -83.03996 | 14618 ft | 296 kts | 314° |
| 2026-04-20 22:42 | 41.92765 | -83.06026 | 14147 ft | 292 kts | 314° |
| 2026-04-20 22:42 | 41.94116 | -83.08033 | 13683 ft | 290 kts | 314° |
| 2026-04-20 22:42 | 41.95473 | -83.10047 | 13209 ft | 289 kts | 314° |
| 2026-04-20 22:43 | 41.96801 | -83.12019 | 12740 ft | 289 kts | 314° |
| 2026-04-20 22:43 | 41.98148 | -83.14022 | 12264 ft | 288 kts | 314° |
| 2026-04-20 22:43 | 41.99478 | -83.16000 | 11781 ft | 282 kts | 314° |
| 2026-04-20 22:43 | 42.00758 | -83.17905 | 11420 ft | 266 kts | 313° |
| 2026-04-20 22:44 | 42.01988 | -83.19737 | 11310 ft | 259 kts | 313° |
| 2026-04-20 22:44 | 42.03184 | -83.21518 | 11120 ft | 258 kts | 313° |
| 2026-04-20 22:44 | 42.04390 | -83.23312 | 10902 ft | 259 kts | 313° |
| 2026-04-20 22:44 | 42.05616 | -83.25092 | 10652 ft | 260 kts | 316° |
| 2026-04-20 22:45 | 42.07042 | -83.26578 | 10383 ft | 261 kts | 330° |
| 2026-04-20 22:45 | 42.08732 | -83.27462 | 10108 ft | 265 kts | 346° |
| 2026-04-20 22:45 | 42.10565 | -83.27603 | 9816 ft | 269 kts | 4° |
| 2026-04-20 22:45 | 42.12369 | -83.26925 | 9656 ft | 268 kts | 20° |
| 2026-04-20 22:46 | 42.14009 | -83.25761 | 9289 ft | 267 kts | 27° |
| 2026-04-20 22:46 | 42.15585 | -83.24450 | 8970 ft | 266 kts | 29° |
| 2026-04-20 22:46 | 42.17147 | -83.23162 | 8637 ft | 263 kts | 28° |
| 2026-04-20 22:46 | 42.18692 | -83.21924 | 8356 ft | 252 kts | 27° |
| 2026-04-20 22:47 | 42.20154 | -83.20746 | 8229 ft | 238 kts | 27° |
| 2026-04-20 22:47 | 42.21542 | -83.19619 | 7979 ft | 231 kts | 27° |
| 2026-04-20 22:47 | 42.22918 | -83.18513 | 7732 ft | 228 kts | 26° |
| 2026-04-20 22:47 | 42.24295 | -83.17464 | 7485 ft | 228 kts | 26° |
| 2026-04-20 22:48 | 42.25671 | -83.16433 | 7240 ft | 227 kts | 25° |
| 2026-04-20 22:48 | 42.27029 | -83.15415 | 7023 ft | 217 kts | 25° |
| 2026-04-20 22:48 | 42.28335 | -83.14432 | 6762 ft | 214 kts | 25° |
| 2026-04-20 22:48 | 42.29635 | -83.13453 | 6508 ft | 213 kts | 25° |
| 2026-04-20 22:49 | 42.30928 | -83.12479 | 6257 ft | 213 kts | 25° |
| 2026-04-20 22:49 | 42.32206 | -83.11515 | 6008 ft | 212 kts | 25° |
| 2026-04-20 22:49 | 42.33501 | -83.10538 | 5755 ft | 211 kts | 25° |
| 2026-04-20 22:49 | 42.34786 | -83.09571 | 5503 ft | 210 kts | 25° |
| 2026-04-20 22:50 | 42.36057 | -83.08621 | 5252 ft | 210 kts | 25° |
| 2026-04-20 22:50 | 42.37334 | -83.07667 | 5002 ft | 209 kts | 25° |
| 2026-04-20 22:50 | 42.38684 | -83.07081 | 4724 ft | 204 kts | 356° |
| 2026-04-20 22:50 | 42.40001 | -83.07642 | 4491 ft | 200 kts | 321° |
| 2026-04-20 22:51 | 42.40927 | -83.09021 | 4275 ft | 200 kts | 305° |
| 2026-04-20 22:51 | 42.41680 | -83.10606 | 4029 ft | 198 kts | 302° |
| 2026-04-20 22:51 | 42.42376 | -83.12168 | 3993 ft | 194 kts | 298° |
| 2026-04-20 22:51 | 42.42671 | -83.13969 | 3991 ft | 201 kts | 264° |
| 2026-04-20 22:52 | 42.42189 | -83.15730 | 4023 ft | 205 kts | 242° |
| 2026-04-20 22:52 | 42.41412 | -83.17367 | 3992 ft | 206 kts | 238° |
| 2026-04-20 22:52 | 42.40594 | -83.18958 | 3998 ft | 205 kts | 236° |
| 2026-04-20 22:52 | 42.39558 | -83.20306 | 3838 ft | 211 kts | 217° |
| 2026-04-20 22:53 | 42.38313 | -83.21333 | 3659 ft | 206 kts | 212° |
| 2026-04-20 22:53 | 42.37078 | -83.22240 | 3463 ft | 199 kts | 211° |
| 2026-04-20 22:53 | 42.35883 | -83.23116 | 3289 ft | 191 kts | 211° |
| 2026-04-20 22:53 | 42.34737 | -83.23962 | 3138 ft | 187 kts | 211° |
| 2026-04-20 22:54 | 42.33608 | -83.24798 | 2992 ft | 186 kts | 212° |
| 2026-04-20 22:54 | 42.32491 | -83.25626 | 2860 ft | 178 kts | 212° |
| 2026-04-20 22:54 | 42.31427 | -83.26414 | 2698 ft | 175 kts | 211° |
| 2026-04-20 22:54 | 42.30361 | -83.27205 | 2537 ft | 175 kts | 212° |
| 2026-04-20 22:55 | 42.29318 | -83.27975 | 2315 ft | 168 kts | 212° |
| 2026-04-20 22:55 | 42.28308 | -83.28723 | 2104 ft | 162 kts | 211° |
| 2026-04-20 22:55 | 42.27338 | -83.29443 | 1904 ft | 157 kts | 210° |
| 2026-04-20 22:55 | 42.26387 | -83.30145 | 1679 ft | 154 kts | 210° |
| 2026-04-20 22:56 | 42.25449 | -83.30836 | 1475 ft | 154 kts | 210° |
| 2026-04-20 22:56 | 42.24518 | -83.31533 | 1258 ft | 154 kts | 210° |
| 2026-04-20 22:56 | 42.23573 | -83.32217 | 1088 ft | 154 kts | 210° |
| 2026-04-20 22:56 | 42.22645 | -83.32909 | 868 ft | 152 kts | 211° |
| 2026-04-20 22:57 | 42.21727 | -83.33587 | 669 ft | 148 kts | 210° |
| 2026-04-20 22:57 | 42.20953 | -83.34157 | 654 ft | 92 kts | 209° |
| 2026-04-20 22:57 | 42.20566 | -83.34442 | 654 ft | 49 kts | 209° |
| 2026-04-20 22:57 | 42.20312 | -83.34629 | 654 ft | 31 kts | 209° |
| 2026-04-20 22:58 | 42.20192 | -83.34753 | 654 ft | 16 kts | 254° |
| 2026-04-20 22:58 | 42.20186 | -83.34868 | 654 ft | 10 kts | 269° |
| 2026-04-20 22:58 | 42.20183 | -83.34966 | 654 ft | 10 kts | 268° |
| 2026-04-20 22:58 | 42.20179 | -83.35059 | 654 ft | 9 kts | 268° |
| 2026-04-20 22:59 | 42.20178 | -83.35145 | 654 ft | 8 kts | 269° |
| 2026-04-20 22:59 | 42.20177 | -83.35226 | 654 ft | 8 kts | 269° |
| 2026-04-20 22:59 | 42.20176 | -83.35304 | 654 ft | 8 kts | 268° |
| 2026-04-20 22:59 | 42.20174 | -83.35387 | 654 ft | 9 kts | 269° |
| 2026-04-20 23:00 | 42.20173 | -83.35477 | 654 ft | 9 kts | 269° |
| 2026-04-20 23:00 | 42.20171 | -83.35574 | 654 ft | 10 kts | 269° |
| 2026-04-20 23:00 | 42.20169 | -83.35677 | 654 ft | 11 kts | 269° |
| 2026-04-20 23:00 | 42.20168 | -83.35789 | 654 ft | 12 kts | 270° |
| 2026-04-20 23:01 | 42.20167 | -83.35905 | 654 ft | 12 kts | 269° |
| 2026-04-20 23:01 | 42.20164 | -83.36025 | 654 ft | 9 kts | 269° |
| 2026-04-20 23:01 | 42.20167 | -83.36103 | 654 ft | 7 kts | 296° |
| 2026-04-20 23:01 | 42.20204 | -83.36120 | 654 ft | 6 kts | 16° |
| 2026-04-20 23:02 | 42.20244 | -83.36092 | 654 ft | 6 kts | 28° |
| 2026-04-20 23:02 | 42.20287 | -83.36061 | 654 ft | 7 kts | 28° |
| 2026-04-20 23:02 | 42.20333 | -83.36028 | 654 ft | 6 kts | 29° |
| 2026-04-20 23:02 | 42.20366 | -83.36004 | 654 ft | 4 kts | 24° |
| 2026-04-20 23:03 | 42.20384 | -83.36010 | 654 ft | 3 kts | 309° |
| 2026-04-20 23:03 | 42.20397 | -83.36037 | 654 ft | 3 kts | 300° |
| 2026-04-20 23:03 | 42.20404 | -83.36054 | 654 ft | 0 kts | 298° |
| 2026-04-20 23:03 | 42.20404 | -83.36055 | 654 ft | 0 kts | 298° |